sensor_id;sensor_type;location;lat;lon;timestamp;temperature;humidity
14210;DHT22;7188;56.070;12.698;2022-07-10T00:01:37;14.70;99.90
14210;DHT22;7188;56.070;12.698;2022-07-10T00:04:03;14.70;99.90
14210;DHT22;7188;56.070;12.698;2022-07-10T00:06:44;14.70;99.90
14210;DHT22;7188;56.070;12.698;2022-07-10T00:09:13;14.70;99.90
14210;DHT22;7188;56.070;12.698;2022-07-10T00:11:39;14.70;99.90
14210;DHT22;7188;56.070;12.698;2022-07-10T00:14:05;14.70;99.90
14210;DHT22;7188;56.070;12.698;2022-07-10T00:16:31;14.70;99.90
14210;DHT22;7188;56.070;12.698;2022-07-10T00:18:56;14.70;99.90
14210;DHT22;7188;56.070;12.698;2022-07-10T00:21:22;14.70;99.90
14210;DHT22;7188;56.070;12.698;2022-07-10T00:23:48;14.70;99.90
14210;DHT22;7188;56.070;12.698;2022-07-10T00:26:14;14.70;99.90
14210;DHT22;7188;56.070;12.698;2022-07-10T00:28:39;14.70;99.90
14210;DHT22;7188;56.070;12.698;2022-07-10T00:31:05;14.70;99.90
14210;DHT22;7188;56.070;12.698;2022-07-10T00:33:31;14.70;99.90
14210;DHT22;7188;56.070;12.698;2022-07-10T00:35:58;14.70;99.90
14210;DHT22;7188;56.070;12.698;2022-07-10T00:38:24;14.70;99.90
14210;DHT22;7188;56.070;12.698;2022-07-10T00:40:50;14.70;99.90
14210;DHT22;7188;56.070;12.698;2022-07-10T00:43:16;14.70;99.90
14210;DHT22;7188;56.070;12.698;2022-07-10T00:45:41;14.70;99.90
14210;DHT22;7188;56.070;12.698;2022-07-10T00:48:07;14.70;99.90
14210;DHT22;7188;56.070;12.698;2022-07-10T00:50:34;14.70;99.90
14210;DHT22;7188;56.070;12.698;2022-07-10T00:53:01;14.80;99.90
14210;DHT22;7188;56.070;12.698;2022-07-10T00:55:29;14.80;99.90
14210;DHT22;7188;56.070;12.698;2022-07-10T00:57:55;14.80;99.90
14210;DHT22;7188;56.070;12.698;2022-07-10T01:00:21;14.80;99.90
14210;DHT22;7188;56.070;12.698;2022-07-10T01:02:47;14.80;99.90
14210;DHT22;7188;56.070;12.698;2022-07-10T01:05:13;14.90;99.90
14210;DHT22;7188;56.070;12.698;2022-07-10T01:07:39;14.90;99.90
14210;DHT22;7188;56.070;12.698;2022-07-10T01:10:05;15.00;99.90
14210;DHT22;7188;56.070;12.698;2022-07-10T01:12:31;15.10;99.90
14210;DHT22;7188;56.070;12.698;2022-07-10T01:14:56;15.10;99.90
14210;DHT22;7188;56.070;12.698;2022-07-10T01:17:24;15.20;99.90
14210;DHT22;7188;56.070;12.698;2022-07-10T01:19:50;15.20;99.90
14210;DHT22;7188;56.070;12.698;2022-07-10T01:22:15;15.30;99.90
14210;DHT22;7188;56.070;12.698;2022-07-10T01:24:41;15.30;99.90
14210;DHT22;7188;56.070;12.698;2022-07-10T01:27:07;15.30;99.90
14210;DHT22;7188;56.070;12.698;2022-07-10T01:29:34;15.30;99.90
14210;DHT22;7188;56.070;12.698;2022-07-10T01:32:00;15.30;99.90
14210;DHT22;7188;56.070;12.698;2022-07-10T01:34:27;15.40;99.90
14210;DHT22;7188;56.070;12.698;2022-07-10T01:36:54;15.30;99.90
14210;DHT22;7188;56.070;12.698;2022-07-10T01:39:20;15.40;99.90
14210;DHT22;7188;56.070;12.698;2022-07-10T01:41:45;15.40;99.90
14210;DHT22;7188;56.070;12.698;2022-07-10T01:44:11;15.40;99.90
14210;DHT22;7188;56.070;12.698;2022-07-10T01:46:44;15.30;99.90
14210;DHT22;7188;56.070;12.698;2022-07-10T01:49:11;15.30;99.90
14210;DHT22;7188;56.070;12.698;2022-07-10T01:51:36;15.30;99.90
14210;DHT22;7188;56.070;12.698;2022-07-10T01:54:02;15.30;99.90
14210;DHT22;7188;56.070;12.698;2022-07-10T01:56:28;15.30;99.90
14210;DHT22;7188;56.070;12.698;2022-07-10T01:58:53;15.20;99.90
14210;DHT22;7188;56.070;12.698;2022-07-10T02:01:31;15.30;99.90
14210;DHT22;7188;56.070;12.698;2022-07-10T02:03:57;15.40;99.90
14210;DHT22;7188;56.070;12.698;2022-07-10T02:06:41;15.40;99.90
14210;DHT22;7188;56.070;12.698;2022-07-10T02:09:07;15.50;99.90
14210;DHT22;7188;56.070;12.698;2022-07-10T02:11:33;15.40;99.90
14210;DHT22;7188;56.070;12.698;2022-07-10T02:13:59;15.50;99.90
14210;DHT22;7188;56.070;12.698;2022-07-10T02:16:24;15.50;99.90
14210;DHT22;7188;56.070;12.698;2022-07-10T02:18:50;15.50;99.90
14210;DHT22;7188;56.070;12.698;2022-07-10T02:21:16;15.50;99.90
14210;DHT22;7188;56.070;12.698;2022-07-10T02:23:41;15.50;99.90
14210;DHT22;7188;56.070;12.698;2022-07-10T02:26:07;15.50;99.90
14210;DHT22;7188;56.070;12.698;2022-07-10T02:28:34;15.50;99.90
14210;DHT22;7188;56.070;12.698;2022-07-10T02:30:59;15.50;99.90
14210;DHT22;7188;56.070;12.698;2022-07-10T02:33:25;15.50;99.90
14210;DHT22;7188;56.070;12.698;2022-07-10T02:35:51;15.40;99.90
14210;DHT22;7188;56.070;12.698;2022-07-10T02:38:17;15.40;99.90
14210;DHT22;7188;56.070;12.698;2022-07-10T02:40:42;15.40;99.90
14210;DHT22;7188;56.070;12.698;2022-07-10T02:43:08;15.40;99.90
14210;DHT22;7188;56.070;12.698;2022-07-10T02:45:34;15.40;99.90
14210;DHT22;7188;56.070;12.698;2022-07-10T02:47:59;15.30;99.90
14210;DHT22;7188;56.070;12.698;2022-07-10T02:50:25;15.30;99.90
14210;DHT22;7188;56.070;12.698;2022-07-10T02:52:51;15.30;99.90
14210;DHT22;7188;56.070;12.698;2022-07-10T02:55:16;15.30;99.90
14210;DHT22;7188;56.070;12.698;2022-07-10T02:57:42;15.20;99.90
14210;DHT22;7188;56.070;12.698;2022-07-10T03:00:08;15.20;99.90
14210;DHT22;7188;56.070;12.698;2022-07-10T03:02:34;15.20;99.90
14210;DHT22;7188;56.070;12.698;2022-07-10T03:05:00;15.20;99.90
14210;DHT22;7188;56.070;12.698;2022-07-10T03:07:25;15.20;99.90
14210;DHT22;7188;56.070;12.698;2022-07-10T03:09:51;15.20;99.90
14210;DHT22;7188;56.070;12.698;2022-07-10T03:12:17;15.20;99.90
14210;DHT22;7188;56.070;12.698;2022-07-10T03:14:43;15.30;99.90
14210;DHT22;7188;56.070;12.698;2022-07-10T03:17:09;15.40;99.90
14210;DHT22;7188;56.070;12.698;2022-07-10T03:19:35;15.40;99.90
14210;DHT22;7188;56.070;12.698;2022-07-10T03:22:00;15.40;99.90
14210;DHT22;7188;56.070;12.698;2022-07-10T03:24:26;15.40;99.90
14210;DHT22;7188;56.070;12.698;2022-07-10T03:26:52;15.40;99.90
14210;DHT22;7188;56.070;12.698;2022-07-10T03:29:17;15.30;99.90
14210;DHT22;7188;56.070;12.698;2022-07-10T03:31:43;15.30;99.90
14210;DHT22;7188;56.070;12.698;2022-07-10T03:34:09;15.30;99.90
14210;DHT22;7188;56.070;12.698;2022-07-10T03:36:35;15.20;99.90
14210;DHT22;7188;56.070;12.698;2022-07-10T03:39:01;15.20;99.90
14210;DHT22;7188;56.070;12.698;2022-07-10T03:41:26;15.30;99.90
14210;DHT22;7188;56.070;12.698;2022-07-10T03:43:52;15.20;99.90
14210;DHT22;7188;56.070;12.698;2022-07-10T03:46:17;15.30;99.90
14210;DHT22;7188;56.070;12.698;2022-07-10T03:48:43;15.20;99.90
14210;DHT22;7188;56.070;12.698;2022-07-10T03:51:09;15.20;99.90
14210;DHT22;7188;56.070;12.698;2022-07-10T03:53:34;15.20;99.90
14210;DHT22;7188;56.070;12.698;2022-07-10T03:56:00;15.20;99.90
14210;DHT22;7188;56.070;12.698;2022-07-10T03:58:26;15.20;99.90
14210;DHT22;7188;56.070;12.698;2022-07-10T04:00:52;15.30;99.90
14210;DHT22;7188;56.070;12.698;2022-07-10T04:03:17;15.20;99.90
14210;DHT22;7188;56.070;12.698;2022-07-10T04:05:43;15.30;99.90
14210;DHT22;7188;56.070;12.698;2022-07-10T04:08:09;15.30;99.90
14210;DHT22;7188;56.070;12.698;2022-07-10T04:10:35;15.30;99.90
14210;DHT22;7188;56.070;12.698;2022-07-10T04:13:01;15.20;99.90
14210;DHT22;7188;56.070;12.698;2022-07-10T04:15:27;15.30;99.90
14210;DHT22;7188;56.070;12.698;2022-07-10T04:17:53;15.30;99.90
14210;DHT22;7188;56.070;12.698;2022-07-10T04:20:20;15.40;99.90
14210;DHT22;7188;56.070;12.698;2022-07-10T04:22:46;15.40;99.90
14210;DHT22;7188;56.070;12.698;2022-07-10T04:25:12;15.40;99.90
14210;DHT22;7188;56.070;12.698;2022-07-10T04:27:38;15.50;99.90
14210;DHT22;7188;56.070;12.698;2022-07-10T04:30:04;15.50;99.90
14210;DHT22;7188;56.070;12.698;2022-07-10T04:32:30;15.60;99.90
14210;DHT22;7188;56.070;12.698;2022-07-10T04:34:57;15.60;99.90
14210;DHT22;7188;56.070;12.698;2022-07-10T04:37:23;15.70;99.90
14210;DHT22;7188;56.070;12.698;2022-07-10T04:39:48;15.70;99.90
14210;DHT22;7188;56.070;12.698;2022-07-10T04:42:14;15.80;99.90
14210;DHT22;7188;56.070;12.698;2022-07-10T04:44:40;15.90;99.90
14210;DHT22;7188;56.070;12.698;2022-07-10T04:47:06;15.90;99.90
14210;DHT22;7188;56.070;12.698;2022-07-10T04:49:32;16.00;99.90
14210;DHT22;7188;56.070;12.698;2022-07-10T04:52:13;16.00;99.90
14210;DHT22;7188;56.070;12.698;2022-07-10T04:54:39;16.00;99.90
14210;DHT22;7188;56.070;12.698;2022-07-10T04:57:04;16.10;99.90
14210;DHT22;7188;56.070;12.698;2022-07-10T04:59:30;16.20;99.90
14210;DHT22;7188;56.070;12.698;2022-07-10T05:01:56;16.40;99.90
14210;DHT22;7188;56.070;12.698;2022-07-10T05:04:21;16.60;99.90
14210;DHT22;7188;56.070;12.698;2022-07-10T05:06:47;16.60;99.90
14210;DHT22;7188;56.070;12.698;2022-07-10T05:09:13;16.60;99.90
14210;DHT22;7188;56.070;12.698;2022-07-10T05:11:38;16.60;99.90
14210;DHT22;7188;56.070;12.698;2022-07-10T05:14:04;16.90;99.90
14210;DHT22;7188;56.070;12.698;2022-07-10T05:16:31;16.80;99.90
14210;DHT22;7188;56.070;12.698;2022-07-10T05:18:56;16.70;99.90
14210;DHT22;7188;56.070;12.698;2022-07-10T05:21:22;16.80;99.90
14210;DHT22;7188;56.070;12.698;2022-07-10T05:23:48;17.00;99.90
14210;DHT22;7188;56.070;12.698;2022-07-10T05:26:13;17.20;99.90
14210;DHT22;7188;56.070;12.698;2022-07-10T05:28:39;17.30;99.90
14210;DHT22;7188;56.070;12.698;2022-07-10T05:31:05;17.50;99.90
14210;DHT22;7188;56.070;12.698;2022-07-10T05:33:30;17.50;99.90
14210;DHT22;7188;56.070;12.698;2022-07-10T05:35:56;17.70;99.90
14210;DHT22;7188;56.070;12.698;2022-07-10T05:38:22;17.90;99.90
14210;DHT22;7188;56.070;12.698;2022-07-10T05:40:47;18.00;99.90
14210;DHT22;7188;56.070;12.698;2022-07-10T05:43:14;17.90;99.90
14210;DHT22;7188;56.070;12.698;2022-07-10T05:45:40;17.80;99.90
14210;DHT22;7188;56.070;12.698;2022-07-10T05:48:05;17.80;99.90
14210;DHT22;7188;56.070;12.698;2022-07-10T05:50:31;17.80;99.90
14210;DHT22;7188;56.070;12.698;2022-07-10T05:52:57;17.90;99.90
14210;DHT22;7188;56.070;12.698;2022-07-10T05:55:23;18.00;99.90
14210;DHT22;7188;56.070;12.698;2022-07-10T05:57:49;18.00;99.90
14210;DHT22;7188;56.070;12.698;2022-07-10T06:00:15;17.90;99.90
14210;DHT22;7188;56.070;12.698;2022-07-10T06:02:41;17.80;99.90
14210;DHT22;7188;56.070;12.698;2022-07-10T06:05:07;17.90;99.90
14210;DHT22;7188;56.070;12.698;2022-07-10T06:07:33;18.10;99.90
14210;DHT22;7188;56.070;12.698;2022-07-10T06:09:59;18.20;99.90
14210;DHT22;7188;56.070;12.698;2022-07-10T06:12:25;18.30;99.90
14210;DHT22;7188;56.070;12.698;2022-07-10T06:14:51;18.30;99.90
14210;DHT22;7188;56.070;12.698;2022-07-10T06:17:17;18.40;99.90
14210;DHT22;7188;56.070;12.698;2022-07-10T06:19:42;18.20;99.90
14210;DHT22;7188;56.070;12.698;2022-07-10T06:22:08;18.30;99.90
14210;DHT22;7188;56.070;12.698;2022-07-10T06:24:52;18.30;99.90
14210;DHT22;7188;56.070;12.698;2022-07-10T06:27:18;18.30;99.90
14210;DHT22;7188;56.070;12.698;2022-07-10T06:30:02;18.30;99.90
14210;DHT22;7188;56.070;12.698;2022-07-10T06:32:28;18.10;99.90
14210;DHT22;7188;56.070;12.698;2022-07-10T06:34:54;18.00;99.90
14210;DHT22;7188;56.070;12.698;2022-07-10T06:37:20;18.00;99.90
14210;DHT22;7188;56.070;12.698;2022-07-10T06:39:46;17.80;99.90
14210;DHT22;7188;56.070;12.698;2022-07-10T06:42:16;18.10;99.90
14210;DHT22;7188;56.070;12.698;2022-07-10T06:44:42;18.30;99.90
14210;DHT22;7188;56.070;12.698;2022-07-10T06:47:27;18.30;99.90
14210;DHT22;7188;56.070;12.698;2022-07-10T06:50:11;18.30;99.90
14210;DHT22;7188;56.070;12.698;2022-07-10T06:52:37;18.20;99.90
14210;DHT22;7188;56.070;12.698;2022-07-10T06:55:04;18.10;99.90
14210;DHT22;7188;56.070;12.698;2022-07-10T06:57:30;18.10;99.90
14210;DHT22;7188;56.070;12.698;2022-07-10T06:59:55;18.10;99.90
14210;DHT22;7188;56.070;12.698;2022-07-10T07:02:21;18.20;99.90
14210;DHT22;7188;56.070;12.698;2022-07-10T07:04:47;18.30;99.90
14210;DHT22;7188;56.070;12.698;2022-07-10T07:07:13;18.40;99.90
14210;DHT22;7188;56.070;12.698;2022-07-10T07:09:39;18.30;99.90
14210;DHT22;7188;56.070;12.698;2022-07-10T07:12:06;18.30;99.90
14210;DHT22;7188;56.070;12.698;2022-07-10T07:14:32;18.50;99.90
14210;DHT22;7188;56.070;12.698;2022-07-10T07:16:58;18.50;99.90
14210;DHT22;7188;56.070;12.698;2022-07-10T07:19:37;18.50;99.90
14210;DHT22;7188;56.070;12.698;2022-07-10T07:22:23;18.40;99.90
14210;DHT22;7188;56.070;12.698;2022-07-10T07:25:09;18.40;99.90
14210;DHT22;7188;56.070;12.698;2022-07-10T07:27:36;18.60;99.90
14210;DHT22;7188;56.070;12.698;2022-07-10T07:30:14;18.60;99.90
14210;DHT22;7188;56.070;12.698;2022-07-10T07:32:41;18.50;99.90
14210;DHT22;7188;56.070;12.698;2022-07-10T07:35:08;18.50;99.90
14210;DHT22;7188;56.070;12.698;2022-07-10T07:37:45;18.60;99.90
14210;DHT22;7188;56.070;12.698;2022-07-10T07:40:13;18.70;99.90
14210;DHT22;7188;56.070;12.698;2022-07-10T07:42:39;18.70;99.90
14210;DHT22;7188;56.070;12.698;2022-07-10T07:45:07;18.60;99.90
14210;DHT22;7188;56.070;12.698;2022-07-10T07:47:45;18.50;99.90
14210;DHT22;7188;56.070;12.698;2022-07-10T07:50:16;18.60;99.90
14210;DHT22;7188;56.070;12.698;2022-07-10T07:52:42;18.80;99.90
14210;DHT22;7188;56.070;12.698;2022-07-10T07:55:09;18.80;99.90
14210;DHT22;7188;56.070;12.698;2022-07-10T07:57:35;18.90;99.90
14210;DHT22;7188;56.070;12.698;2022-07-10T08:00:01;18.70;99.90
14210;DHT22;7188;56.070;12.698;2022-07-10T08:02:27;18.80;99.90
14210;DHT22;7188;56.070;12.698;2022-07-10T08:04:52;18.70;99.90
14210;DHT22;7188;56.070;12.698;2022-07-10T08:07:18;18.90;99.90
14210;DHT22;7188;56.070;12.698;2022-07-10T08:09:43;19.00;99.90
14210;DHT22;7188;56.070;12.698;2022-07-10T08:12:10;19.30;99.90
14210;DHT22;7188;56.070;12.698;2022-07-10T08:14:35;19.30;99.90
14210;DHT22;7188;56.070;12.698;2022-07-10T08:17:01;19.20;99.90
14210;DHT22;7188;56.070;12.698;2022-07-10T08:19:27;19.20;99.90
14210;DHT22;7188;56.070;12.698;2022-07-10T08:21:52;19.10;99.90
14210;DHT22;7188;56.070;12.698;2022-07-10T08:24:18;19.20;99.90
14210;DHT22;7188;56.070;12.698;2022-07-10T08:26:44;19.40;99.90
14210;DHT22;7188;56.070;12.698;2022-07-10T08:29:10;19.40;99.90
14210;DHT22;7188;56.070;12.698;2022-07-10T08:31:35;19.60;99.90
14210;DHT22;7188;56.070;12.698;2022-07-10T08:34:01;19.50;99.90
14210;DHT22;7188;56.070;12.698;2022-07-10T08:36:27;19.40;99.90
14210;DHT22;7188;56.070;12.698;2022-07-10T08:38:53;19.30;99.90
14210;DHT22;7188;56.070;12.698;2022-07-10T08:41:25;19.30;99.90
14210;DHT22;7188;56.070;12.698;2022-07-10T08:43:52;19.30;99.90
14210;DHT22;7188;56.070;12.698;2022-07-10T08:46:18;19.20;99.90
14210;DHT22;7188;56.070;12.698;2022-07-10T08:48:48;19.20;99.90
14210;DHT22;7188;56.070;12.698;2022-07-10T08:51:40;19.30;99.90
14210;DHT22;7188;56.070;12.698;2022-07-10T08:54:08;19.40;99.90
14210;DHT22;7188;56.070;12.698;2022-07-10T08:56:34;19.40;99.90
14210;DHT22;7188;56.070;12.698;2022-07-10T08:59:03;19.30;99.90
14210;DHT22;7188;56.070;12.698;2022-07-10T09:01:31;19.10;99.90
14210;DHT22;7188;56.070;12.698;2022-07-10T09:03:58;19.10;99.90
14210;DHT22;7188;56.070;12.698;2022-07-10T09:06:24;19.10;99.90
14210;DHT22;7188;56.070;12.698;2022-07-10T09:09:06;19.20;99.90
14210;DHT22;7188;56.070;12.698;2022-07-10T09:11:34;19.40;99.90
14210;DHT22;7188;56.070;12.698;2022-07-10T09:14:00;19.20;99.90
14210;DHT22;7188;56.070;12.698;2022-07-10T09:16:33;19.20;99.90
14210;DHT22;7188;56.070;12.698;2022-07-10T09:19:21;19.40;99.90
14210;DHT22;7188;56.070;12.698;2022-07-10T09:21:49;19.50;99.90
14210;DHT22;7188;56.070;12.698;2022-07-10T09:24:15;19.60;99.90
14210;DHT22;7188;56.070;12.698;2022-07-10T09:26:59;19.60;99.90
14210;DHT22;7188;56.070;12.698;2022-07-10T09:29:30;19.70;99.90
14210;DHT22;7188;56.070;12.698;2022-07-10T09:31:58;19.70;99.90
14210;DHT22;7188;56.070;12.698;2022-07-10T09:34:41;19.50;99.90
14210;DHT22;7188;56.070;12.698;2022-07-10T09:37:22;19.50;99.90
14210;DHT22;7188;56.070;12.698;2022-07-10T09:40:01;19.60;99.90
14210;DHT22;7188;56.070;12.698;2022-07-10T09:42:43;19.60;99.90
14210;DHT22;7188;56.070;12.698;2022-07-10T09:47:38;19.70;99.90
14210;DHT22;7188;56.070;12.698;2022-07-10T09:50:19;19.60;99.90
14210;DHT22;7188;56.070;12.698;2022-07-10T09:52:46;19.60;99.90
14210;DHT22;7188;56.070;12.698;2022-07-10T09:55:13;19.80;99.90
14210;DHT22;7188;56.070;12.698;2022-07-10T09:57:40;19.80;99.90
14210;DHT22;7188;56.070;12.698;2022-07-10T10:00:10;19.70;99.90
14210;DHT22;7188;56.070;12.698;2022-07-10T10:02:37;19.60;99.90
14210;DHT22;7188;56.070;12.698;2022-07-10T10:05:04;19.60;99.90
14210;DHT22;7188;56.070;12.698;2022-07-10T10:07:32;19.50;99.90
14210;DHT22;7188;56.070;12.698;2022-07-10T10:10:01;19.40;99.90
14210;DHT22;7188;56.070;12.698;2022-07-10T10:12:42;19.60;99.90
14210;DHT22;7188;56.070;12.698;2022-07-10T10:15:10;19.90;99.90
14210;DHT22;7188;56.070;12.698;2022-07-10T10:17:39;20.10;99.90
14210;DHT22;7188;56.070;12.698;2022-07-10T10:20:07;20.10;99.90
14210;DHT22;7188;56.070;12.698;2022-07-10T10:22:52;20.00;99.90
14210;DHT22;7188;56.070;12.698;2022-07-10T10:25:22;19.90;99.90
14210;DHT22;7188;56.070;12.698;2022-07-10T10:27:48;20.00;99.90
14210;DHT22;7188;56.070;12.698;2022-07-10T10:30:13;20.00;99.90
14210;DHT22;7188;56.070;12.698;2022-07-10T10:32:40;20.10;99.90
14210;DHT22;7188;56.070;12.698;2022-07-10T10:35:06;20.10;99.90
14210;DHT22;7188;56.070;12.698;2022-07-10T10:37:39;20.20;99.90
14210;DHT22;7188;56.070;12.698;2022-07-10T10:40:11;20.40;99.90
14210;DHT22;7188;56.070;12.698;2022-07-10T10:42:55;20.30;99.90
14210;DHT22;7188;56.070;12.698;2022-07-10T10:48:01;20.30;99.90
14210;DHT22;7188;56.070;12.698;2022-07-10T10:50:50;20.10;99.90
14210;DHT22;7188;56.070;12.698;2022-07-10T10:53:27;20.10;99.90
14210;DHT22;7188;56.070;12.698;2022-07-10T10:58:37;19.80;99.90
14210;DHT22;7188;56.070;12.698;2022-07-10T11:01:04;19.80;99.90
14210;DHT22;7188;56.070;12.698;2022-07-10T11:03:31;20.00;99.90
14210;DHT22;7188;56.070;12.698;2022-07-10T11:05:57;20.10;99.90
14210;DHT22;7188;56.070;12.698;2022-07-10T11:08:42;20.00;99.90
14210;DHT22;7188;56.070;12.698;2022-07-10T11:11:57;19.70;99.90
14210;DHT22;7188;56.070;12.698;2022-07-10T11:14:23;19.60;99.90
14210;DHT22;7188;56.070;12.698;2022-07-10T11:16:54;19.80;99.90
14210;DHT22;7188;56.070;12.698;2022-07-10T11:19:24;19.90;99.90
14210;DHT22;7188;56.070;12.698;2022-07-10T11:25:03;19.60;99.90
14210;DHT22;7188;56.070;12.698;2022-07-10T11:30:13;20.00;99.90
14210;DHT22;7188;56.070;12.698;2022-07-10T11:32:39;20.10;99.90
14210;DHT22;7188;56.070;12.698;2022-07-10T11:35:14;20.10;99.90
14210;DHT22;7188;56.070;12.698;2022-07-10T11:37:50;20.00;99.90
14210;DHT22;7188;56.070;12.698;2022-07-10T11:40:17;19.90;99.90
14210;DHT22;7188;56.070;12.698;2022-07-10T11:45:33;19.80;99.90
14210;DHT22;7188;56.070;12.698;2022-07-10T11:48:03;19.90;99.90
14210;DHT22;7188;56.070;12.698;2022-07-10T11:50:35;19.80;99.90
14210;DHT22;7188;56.070;12.698;2022-07-10T11:53:02;19.50;99.90
14210;DHT22;7188;56.070;12.698;2022-07-10T11:55:29;19.50;99.90
14210;DHT22;7188;56.070;12.698;2022-07-10T11:57:55;19.50;99.90
14210;DHT22;7188;56.070;12.698;2022-07-10T12:00:21;19.50;99.90
14210;DHT22;7188;56.070;12.698;2022-07-10T12:02:49;19.40;99.90
14210;DHT22;7188;56.070;12.698;2022-07-10T12:05:31;19.40;99.90
14210;DHT22;7188;56.070;12.698;2022-07-10T12:07:57;19.50;99.90
14210;DHT22;7188;56.070;12.698;2022-07-10T12:10:30;19.50;99.90
14210;DHT22;7188;56.070;12.698;2022-07-10T12:13:10;19.60;99.90
14210;DHT22;7188;56.070;12.698;2022-07-10T12:18:23;19.30;99.90
14210;DHT22;7188;56.070;12.698;2022-07-10T12:20:50;19.40;99.90
14210;DHT22;7188;56.070;12.698;2022-07-10T12:23:18;19.50;99.90
14210;DHT22;7188;56.070;12.698;2022-07-10T12:25:46;19.50;99.90
14210;DHT22;7188;56.070;12.698;2022-07-10T12:28:14;19.50;99.90
14210;DHT22;7188;56.070;12.698;2022-07-10T12:30:41;19.70;99.90
14210;DHT22;7188;56.070;12.698;2022-07-10T12:33:09;19.90;99.90
14210;DHT22;7188;56.070;12.698;2022-07-10T12:35:51;19.60;99.90
14210;DHT22;7188;56.070;12.698;2022-07-10T12:38:21;19.40;99.90
14210;DHT22;7188;56.070;12.698;2022-07-10T12:40:47;19.30;99.90
14210;DHT22;7188;56.070;12.698;2022-07-10T12:43:24;19.20;99.90
14210;DHT22;7188;56.070;12.698;2022-07-10T12:48:35;19.60;99.90
14210;DHT22;7188;56.070;12.698;2022-07-10T12:51:20;19.60;99.90
14210;DHT22;7188;56.070;12.698;2022-07-10T12:53:46;19.50;99.90
14210;DHT22;7188;56.070;12.698;2022-07-10T12:56:26;19.20;99.90
14210;DHT22;7188;56.070;12.698;2022-07-10T12:58:52;19.20;99.90
14210;DHT22;7188;56.070;12.698;2022-07-10T13:01:18;19.40;99.90
14210;DHT22;7188;56.070;12.698;2022-07-10T13:03:43;19.40;99.90
14210;DHT22;7188;56.070;12.698;2022-07-10T13:06:26;19.40;99.90
14210;DHT22;7188;56.070;12.698;2022-07-10T13:08:52;19.00;99.90
14210;DHT22;7188;56.070;12.698;2022-07-10T13:11:17;19.00;99.90
14210;DHT22;7188;56.070;12.698;2022-07-10T13:13:43;19.10;99.90
14210;DHT22;7188;56.070;12.698;2022-07-10T13:16:09;19.00;99.90
14210;DHT22;7188;56.070;12.698;2022-07-10T13:18:34;18.90;99.90
14210;DHT22;7188;56.070;12.698;2022-07-10T13:21:00;19.00;99.90
14210;DHT22;7188;56.070;12.698;2022-07-10T13:23:29;19.00;99.90
14210;DHT22;7188;56.070;12.698;2022-07-10T13:25:58;19.10;99.90
14210;DHT22;7188;56.070;12.698;2022-07-10T13:28:24;19.10;99.90
14210;DHT22;7188;56.070;12.698;2022-07-10T13:30:50;18.90;99.90
14210;DHT22;7188;56.070;12.698;2022-07-10T13:33:16;19.00;99.90
14210;DHT22;7188;56.070;12.698;2022-07-10T13:35:42;19.20;99.90
14210;DHT22;7188;56.070;12.698;2022-07-10T13:38:08;19.10;99.90
14210;DHT22;7188;56.070;12.698;2022-07-10T13:40:35;19.20;99.90
14210;DHT22;7188;56.070;12.698;2022-07-10T13:43:02;19.10;99.90
14210;DHT22;7188;56.070;12.698;2022-07-10T13:45:29;19.20;99.90
14210;DHT22;7188;56.070;12.698;2022-07-10T13:47:59;19.10;99.90
14210;DHT22;7188;56.070;12.698;2022-07-10T13:50:25;19.10;99.90
14210;DHT22;7188;56.070;12.698;2022-07-10T13:52:51;19.10;99.90
14210;DHT22;7188;56.070;12.698;2022-07-10T13:55:17;18.90;99.90
14210;DHT22;7188;56.070;12.698;2022-07-10T13:57:43;18.90;99.90
14210;DHT22;7188;56.070;12.698;2022-07-10T14:00:10;19.00;99.90
14210;DHT22;7188;56.070;12.698;2022-07-10T14:02:37;18.80;99.90
14210;DHT22;7188;56.070;12.698;2022-07-10T14:05:03;18.90;99.90
14210;DHT22;7188;56.070;12.698;2022-07-10T14:07:28;19.00;99.90
14210;DHT22;7188;56.070;12.698;2022-07-10T14:09:55;19.00;99.90
14210;DHT22;7188;56.070;12.698;2022-07-10T14:12:20;19.00;99.90
14210;DHT22;7188;56.070;12.698;2022-07-10T14:14:46;19.20;99.90
14210;DHT22;7188;56.070;12.698;2022-07-10T14:17:12;19.30;99.90
14210;DHT22;7188;56.070;12.698;2022-07-10T14:19:38;19.30;99.90
14210;DHT22;7188;56.070;12.698;2022-07-10T14:22:06;19.20;99.90
14210;DHT22;7188;56.070;12.698;2022-07-10T14:24:31;19.10;99.90
14210;DHT22;7188;56.070;12.698;2022-07-10T14:26:57;19.10;99.90
14210;DHT22;7188;56.070;12.698;2022-07-10T14:29:23;19.20;99.90
14210;DHT22;7188;56.070;12.698;2022-07-10T14:31:48;19.20;99.90
14210;DHT22;7188;56.070;12.698;2022-07-10T14:34:18;19.20;99.90
14210;DHT22;7188;56.070;12.698;2022-07-10T14:36:43;19.10;99.90
14210;DHT22;7188;56.070;12.698;2022-07-10T14:39:09;19.00;99.90
14210;DHT22;7188;56.070;12.698;2022-07-10T14:41:37;18.80;99.90
14210;DHT22;7188;56.070;12.698;2022-07-10T14:44:04;19.00;99.90
14210;DHT22;7188;56.070;12.698;2022-07-10T14:46:29;19.00;99.90
14210;DHT22;7188;56.070;12.698;2022-07-10T14:48:55;19.00;99.90
14210;DHT22;7188;56.070;12.698;2022-07-10T14:51:21;19.20;99.90
14210;DHT22;7188;56.070;12.698;2022-07-10T14:53:47;19.20;99.90
14210;DHT22;7188;56.070;12.698;2022-07-10T14:56:13;19.20;99.90
14210;DHT22;7188;56.070;12.698;2022-07-10T14:58:42;19.10;99.90
14210;DHT22;7188;56.070;12.698;2022-07-10T15:01:08;19.10;99.90
14210;DHT22;7188;56.070;12.698;2022-07-10T15:03:34;19.10;99.90
14210;DHT22;7188;56.070;12.698;2022-07-10T15:05:59;19.20;99.90
14210;DHT22;7188;56.070;12.698;2022-07-10T15:08:25;19.30;99.90
14210;DHT22;7188;56.070;12.698;2022-07-10T15:10:51;19.30;99.90
14210;DHT22;7188;56.070;12.698;2022-07-10T15:13:17;19.20;99.90
14210;DHT22;7188;56.070;12.698;2022-07-10T15:15:43;19.30;99.90
14210;DHT22;7188;56.070;12.698;2022-07-10T15:18:10;19.30;99.90
14210;DHT22;7188;56.070;12.698;2022-07-10T15:20:36;19.30;99.90
14210;DHT22;7188;56.070;12.698;2022-07-10T15:23:03;19.20;99.90
14210;DHT22;7188;56.070;12.698;2022-07-10T15:25:28;19.40;99.90
14210;DHT22;7188;56.070;12.698;2022-07-10T15:27:54;19.40;99.90
14210;DHT22;7188;56.070;12.698;2022-07-10T15:30:20;19.20;99.90
14210;DHT22;7188;56.070;12.698;2022-07-10T15:32:46;19.20;99.90
14210;DHT22;7188;56.070;12.698;2022-07-10T15:35:13;19.30;99.90
14210;DHT22;7188;56.070;12.698;2022-07-10T15:37:38;19.30;99.90
14210;DHT22;7188;56.070;12.698;2022-07-10T15:40:05;19.40;99.90
14210;DHT22;7188;56.070;12.698;2022-07-10T15:42:31;19.50;99.90
14210;DHT22;7188;56.070;12.698;2022-07-10T15:44:57;19.50;99.90
14210;DHT22;7188;56.070;12.698;2022-07-10T15:47:23;19.60;99.90
14210;DHT22;7188;56.070;12.698;2022-07-10T15:49:49;19.60;99.90
14210;DHT22;7188;56.070;12.698;2022-07-10T15:52:14;19.30;99.90
14210;DHT22;7188;56.070;12.698;2022-07-10T15:54:40;19.30;99.90
14210;DHT22;7188;56.070;12.698;2022-07-10T15:57:07;19.20;99.90